Time;durP1;ratioP1;P1;durP2;ratioP2;P2;SDS_P1;SDS_P2;PMS_P1;PMS_P2;Temp;Humidity;BMP_temperature;BMP_pressure;BME280_temperature;BME280_humidity;BME280_pressure;Samples;Min_cycle;Max_cycle;Signal;HPM_P1;HPM_P2
2022/11/18 00:00:04;;;;;;;;;;;9.00;99.90;;;;;;5000784;28;20017;-74
2022/11/18 00:02:31;;;;;;;;;;;9.00;99.90;;;;;;4996968;28;20446;-75
2022/11/18 00:04:59;;;;;;;;;;;8.90;99.90;;;;;;5001792;28;19988;-74
2022/11/18 00:07:26;;;;;;;;;;;8.90;99.90;;;;;;4996972;28;20413;-74
2022/11/18 00:09:54;;;;;;;;;;;8.90;99.90;;;;;;4999307;28;19926;-74
2022/11/18 00:15:05;;;;;;;;;;;9.00;99.90;;;;;;4998451;28;19922;-74
2022/11/18 00:17:32;;;;;;;;;;;8.90;99.90;;;;;;4996139;28;19925;-74
2022/11/18 00:20:00;;;;;;;;;;;8.90;99.90;;;;;;4998653;28;19933;-74
2022/11/18 00:22:27;;;;;;;;;;;8.90;99.90;;;;;;4997376;28;19925;-74
2022/11/18 00:24:54;;;;;;;;;;;8.90;99.90;;;;;;5003810;28;19937;-74
2022/11/18 00:27:21;;;;;;;;;;;8.90;99.90;;;;;;4998530;28;20020;-75
2022/11/18 00:29:47;;;;;;;;;;;8.90;99.90;;;;;;4997585;28;20347;-74
2022/11/18 00:32:14;;;;;;;;;;;8.90;99.90;;;;;;4996306;28;19972;-74
2022/11/18 00:34:42;;;;;;;;;;;8.90;99.90;;;;;;4997862;28;19929;-74
2022/11/18 00:37:10;;;;;;;;;;;8.90;99.90;;;;;;4999821;28;19960;-74
2022/11/18 00:39:37;;;;;;;;;;;8.90;99.90;;;;;;5002082;28;19934;-74
2022/11/18 00:44:48;;;;;;;;;;;8.90;99.90;;;;;;4995153;28;19922;-74
2022/11/18 00:47:15;;;;;;;;;;;8.90;99.90;;;;;;4998620;28;19933;-74
2022/11/18 00:49:41;;;;;;;;;;;8.90;99.90;;;;;;5014050;28;20027;-74
2022/11/18 00:52:09;;;;;;;;;;;8.90;99.90;;;;;;4999074;28;20080;-74
2022/11/18 00:54:36;;;;;;;;;;;8.90;99.90;;;;;;4996168;28;20410;-74
2022/11/18 00:57:04;;;;;;;;;;;8.90;99.90;;;;;;4997433;28;20448;-74
2022/11/18 00:59:30;;;;;;;;;;;8.90;99.90;;;;;;5001080;28;20315;-74
2022/11/18 01:01:57;;;;;;;;;;;8.90;99.90;;;;;;4998734;28;19929;-74
2022/11/18 01:04:24;;;;;;;;;;;8.90;99.90;;;;;;4996718;28;20012;-74
2022/11/18 01:06:51;;;;;;;;;;;8.90;99.90;;;;;;4996497;28;20030;-75
2022/11/18 01:09:19;;;;;;;;;;;8.90;99.90;;;;;;5002384;28;20017;-74
2022/11/18 01:14:30;;;;;;;;;;;8.90;99.90;;;;;;5013895;28;20564;-74
2022/11/18 01:16:57;;;;;;;;;;;8.80;99.90;;;;;;4996228;28;19948;-74
2022/11/18 01:19:24;;;;;;;;;;;8.80;99.90;;;;;;4993360;28;19936;-75
2022/11/18 01:21:51;;;;;;;;;;;8.90;99.90;;;;;;4991535;28;19932;-75
2022/11/18 01:24:19;;;;;;;;;;;8.80;99.90;;;;;;4999286;28;19973;-74
2022/11/18 01:26:46;;;;;;;;;;;8.80;99.90;;;;;;4996943;28;19933;-74
2022/11/18 01:29:13;;;;;;;;;;;8.80;99.90;;;;;;4996859;28;19933;-74
2022/11/18 01:31:40;;;;;;;;;;;8.80;99.90;;;;;;4994259;28;20736;-74
2022/11/18 01:34:06;;;;;;;;;;;8.80;99.90;;;;;;4995612;28;19932;-74
2022/11/18 01:36:33;;;;;;;;;;;8.80;99.90;;;;;;5001387;28;19988;-74
2022/11/18 01:39:00;;;;;;;;;;;8.80;99.90;;;;;;4994705;28;19956;-74
2022/11/18 01:41:28;;;;;;;;;;;8.80;99.90;;;;;;4994993;28;19952;-74
2022/11/18 01:43:56;;;;;;;;;;;8.80;99.90;;;;;;4995383;28;19926;-74
2022/11/18 01:46:25;;;;;;;;;;;8.80;99.90;;;;;;4991716;28;19932;-75
2022/11/18 01:48:53;;;;;;;;;;;8.80;99.90;;;;;;4999383;28;20053;-74
2022/11/18 01:51:22;;;;;;;;;;;8.80;99.90;;;;;;5005072;28;19937;-74
2022/11/18 01:53:51;;;;;;;;;;;8.80;99.90;;;;;;4996477;28;19929;-74
2022/11/18 01:56:19;;;;;;;;;;;8.80;99.90;;;;;;4997323;28;19926;-74
2022/11/18 01:58:50;;;;;;;;;;;8.80;99.90;;;;;;5005863;28;20395;-74
2022/11/18 02:01:16;;;;;;;;;;;8.80;99.90;;;;;;5001523;28;19925;-74
2022/11/18 02:03:44;;;;;;;;;;;8.80;99.90;;;;;;5000297;28;20004;-74
2022/11/18 02:06:12;;;;;;;;;;;8.80;99.90;;;;;;4999899;28;20800;-74
2022/11/18 02:08:39;;;;;;;;;;;8.70;99.90;;;;;;4995301;28;20130;-74
2022/11/18 02:11:49;;;;;;;;;;;8.70;99.90;;;;;;4998230;28;20013;-74
2022/11/18 02:13:58;;;;;;;;;;;8.80;99.90;;;;;;5000268;28;20439;-74
2022/11/18 02:16:29;;;;;;;;;;;8.70;99.90;;;;;;4998858;28;19925;-74
2022/11/18 02:18:59;;;;;;;;;;;8.80;99.90;;;;;;4992987;28;19934;-74
2022/11/18 02:21:29;;;;;;;;;;;8.70;99.90;;;;;;4995114;28;19930;-74
2022/11/18 02:24:09;;;;;;;;;;;8.70;99.90;;;;;;4996775;28;19941;-74
2022/11/18 02:26:53;;;;;;;;;;;8.70;99.90;;;;;;4994589;28;19937;-74
2022/11/18 02:29:24;;;;;;;;;;;8.70;99.90;;;;;;4996855;28;19933;-74
2022/11/18 02:31:55;;;;;;;;;;;8.80;99.90;;;;;;4999335;28;19929;-74
2022/11/18 02:34:25;;;;;;;;;;;8.70;99.90;;;;;;5006445;28;19988;-74
2022/11/18 02:36:56;;;;;;;;;;;8.70;99.90;;;;;;4992993;28;20024;-74
2022/11/18 02:39:29;;;;;;;;;;;8.70;99.90;;;;;;4998257;28;19930;-74
2022/11/18 02:41:57;;;;;;;;;;;8.70;99.90;;;;;;4996631;28;19926;-74
2022/11/18 02:44:26;;;;;;;;;;;8.70;99.90;;;;;;4986321;28;19930;-74
2022/11/18 02:46:55;;;;;;;;;;;8.70;99.90;;;;;;5003243;28;20461;-74
2022/11/18 02:49:24;;;;;;;;;;;8.70;99.90;;;;;;4996396;28;19933;-74
2022/11/18 02:51:53;;;;;;;;;;;8.80;99.90;;;;;;4997590;28;19933;-75
2022/11/18 02:54:21;;;;;;;;;;;8.70;99.90;;;;;;4996122;28;19937;-74
2022/11/18 02:56:49;;;;;;;;;;;8.70;99.90;;;;;;4998327;28;19926;-74
2022/11/18 02:59:17;;;;;;;;;;;8.70;99.90;;;;;;4996844;28;19929;-74
2022/11/18 03:01:46;;;;;;;;;;;8.60;99.90;;;;;;4994762;28;20024;-74
2022/11/18 03:04:14;;;;;;;;;;;8.70;99.90;;;;;;4999340;28;19975;-74
2022/11/18 03:06:41;;;;;;;;;;;8.70;99.90;;;;;;5001288;28;19925;-74
2022/11/18 03:09:11;;;;;;;;;;;8.70;99.90;;;;;;4997315;28;19948;-74
2022/11/18 03:11:42;;;;;;;;;;;8.60;99.90;;;;;;4996093;28;19968;-74
2022/11/18 03:14:14;;;;;;;;;;;8.70;99.90;;;;;;4999689;28;20404;-74
2022/11/18 03:16:44;;;;;;;;;;;8.60;99.90;;;;;;5003738;28;21416;-74
2022/11/18 03:19:18;;;;;;;;;;;8.70;99.90;;;;;;4996783;28;19969;-74
2022/11/18 03:21:47;;;;;;;;;;;8.70;99.90;;;;;;4995712;28;19981;-74
2022/11/18 03:24:16;;;;;;;;;;;8.70;99.90;;;;;;4996334;28;19929;-74
2022/11/18 03:26:45;;;;;;;;;;;8.70;99.90;;;;;;5003627;28;19925;-74
2022/11/18 03:29:15;;;;;;;;;;;8.60;99.90;;;;;;4997644;28;20392;-74
2022/11/18 03:31:45;;;;;;;;;;;8.60;99.90;;;;;;4998254;28;19926;-74
2022/11/18 03:34:17;;;;;;;;;;;8.70;99.90;;;;;;4998911;28;19991;-74
2022/11/18 03:36:45;;;;;;;;;;;8.60;99.90;;;;;;4997081;28;19983;-74
2022/11/18 03:39:13;;;;;;;;;;;8.60;99.90;;;;;;4989855;28;19961;-74
2022/11/18 03:41:42;;;;;;;;;;;8.60;99.90;;;;;;4998829;28;19929;-74
2022/11/18 03:44:11;;;;;;;;;;;8.60;99.90;;;;;;4997440;28;19925;-74
2022/11/18 03:46:40;;;;;;;;;;;8.60;99.90;;;;;;4999861;28;20012;-74
2022/11/18 03:49:07;;;;;;;;;;;8.70;99.90;;;;;;5001631;28;19926;-74
2022/11/18 03:51:39;;;;;;;;;;;8.60;99.90;;;;;;5000356;28;19956;-74
2022/11/18 03:54:09;;;;;;;;;;;8.60;99.90;;;;;;4999058;28;19965;-74
2022/11/18 03:56:37;;;;;;;;;;;8.60;99.90;;;;;;4999918;28;20430;-74
2022/11/18 03:59:08;;;;;;;;;;;8.60;99.90;;;;;;5003642;28;19925;-74
2022/11/18 04:01:38;;;;;;;;;;;8.60;99.90;;;;;;4992693;28;19940;-74
2022/11/18 04:04:05;;;;;;;;;;;8.60;99.90;;;;;;4997314;28;19926;-74
2022/11/18 04:06:37;;;;;;;;;;;8.60;99.90;;;;;;5000006;28;19925;-74
2022/11/18 04:09:07;;;;;;;;;;;8.60;99.90;;;;;;5002501;28;20024;-74
2022/11/18 04:14:21;;;;;;;;;;;8.60;99.90;;;;;;4993007;28;20016;-74
2022/11/18 04:16:50;;;;;;;;;;;8.60;99.90;;;;;;5001549;28;19926;-74
2022/11/18 04:19:17;;;;;;;;;;;8.50;99.90;;;;;;4996782;28;19968;-74
2022/11/18 04:21:44;;;;;;;;;;;8.60;99.90;;;;;;4995671;28;20454;-74
2022/11/18 04:24:12;;;;;;;;;;;8.50;99.90;;;;;;4996953;28;19931;-74
2022/11/18 04:26:39;;;;;;;;;;;8.50;99.90;;;;;;4995141;28;19988;-74
2022/11/18 04:29:05;;;;;;;;;;;8.50;99.90;;;;;;4994926;28;19967;-74
2022/11/18 04:31:35;;;;;;;;;;;8.60;99.90;;;;;;4992989;28;20660;-74
2022/11/18 04:34:01;;;;;;;;;;;8.50;99.90;;;;;;5000288;28;20073;-74
2022/11/18 04:36:28;;;;;;;;;;;8.50;99.90;;;;;;4999290;28;19937;-74
2022/11/18 04:38:55;;;;;;;;;;;8.50;99.90;;;;;;4987608;28;19926;-74
2022/11/18 04:44:18;;;;;;;;;;;8.50;99.90;;;;;;4987051;28;20187;-74
2022/11/18 04:46:47;;;;;;;;;;;8.50;99.90;;;;;;4994938;28;19949;-74
2022/11/18 04:49:14;;;;;;;;;;;8.40;99.90;;;;;;4968993;28;19933;-74
2022/11/18 04:51:41;;;;;;;;;;;8.40;99.90;;;;;;4986994;28;19948;-74
2022/11/18 04:54:09;;;;;;;;;;;8.40;99.90;;;;;;4991961;28;19929;-74
2022/11/18 04:56:37;;;;;;;;;;;8.40;99.90;;;;;;4994342;28;19929;-74
2022/11/18 04:59:04;;;;;;;;;;;8.40;99.90;;;;;;4993643;28;19963;-74
2022/11/18 05:01:31;;;;;;;;;;;8.40;99.90;;;;;;4990706;28;19995;-74
2022/11/18 05:03:59;;;;;;;;;;;8.40;99.90;;;;;;5007548;28;19992;-74
2022/11/18 05:06:26;;;;;;;;;;;8.40;99.90;;;;;;4992681;28;19933;-75
2022/11/18 05:08:53;;;;;;;;;;;8.40;99.90;;;;;;5000775;28;19925;-75
2022/11/18 05:14:05;;;;;;;;;;;8.40;99.90;;;;;;4999393;28;20425;-75
2022/11/18 05:16:32;;;;;;;;;;;8.30;99.90;;;;;;4994298;28;19936;-74
2022/11/18 05:18:59;;;;;;;;;;;8.40;99.90;;;;;;5001560;28;19929;-75
2022/11/18 05:21:26;;;;;;;;;;;8.40;99.90;;;;;;4995036;28;20394;-74
2022/11/18 05:23:52;;;;;;;;;;;8.40;99.90;;;;;;5000285;28;20292;-74
2022/11/18 05:26:19;;;;;;;;;;;8.40;99.90;;;;;;5000312;28;19932;-75
2022/11/18 05:28:46;;;;;;;;;;;8.30;99.90;;;;;;4999792;28;19933;-74
2022/11/18 05:31:15;;;;;;;;;;;8.40;99.90;;;;;;4999953;28;19929;-75
2022/11/18 05:33:43;;;;;;;;;;;8.30;99.90;;;;;;5007466;28;19932;-76
2022/11/18 05:36:11;;;;;;;;;;;8.30;99.90;;;;;;5014512;28;19925;-74
2022/11/18 05:38:38;;;;;;;;;;;8.30;99.90;;;;;;5006077;28;19944;-75
2022/11/18 05:41:05;;;;;;;;;;;8.30;99.90;;;;;;5009998;28;19926;-74
2022/11/18 05:43:31;;;;;;;;;;;8.30;99.90;;;;;;5003060;28;20012;-74
2022/11/18 05:45:59;;;;;;;;;;;8.30;99.90;;;;;;5006011;28;19948;-74
2022/11/18 05:48:27;;;;;;;;;;;8.30;99.90;;;;;;4999253;28;19932;-72
2022/11/18 05:50:54;;;;;;;;;;;8.30;99.90;;;;;;5008347;28;20399;-80
2022/11/18 05:53:23;;;;;;;;;;;8.20;99.90;;;;;;5003350;28;19933;-71
2022/11/18 05:55:53;;;;;;;;;;;8.30;99.90;;;;;;5011844;28;19926;-74
2022/11/18 05:58:20;;;;;;;;;;;8.30;99.90;;;;;;5000445;28;19965;-74
2022/11/18 06:00:48;;;;;;;;;;;8.30;99.90;;;;;;5010803;28;19980;-74
2022/11/18 06:03:18;;;;;;;;;;;8.20;99.90;;;;;;5004512;28;19957;-74
2022/11/18 06:05:47;;;;;;;;;;;8.20;99.90;;;;;;5004596;28;19987;-78
2022/11/18 06:08:15;;;;;;;;;;;8.20;99.90;;;;;;4999688;28;20436;-76
2022/11/18 06:10:42;;;;;;;;;;;8.20;99.90;;;;;;5002189;28;19929;-71
2022/11/18 06:13:11;;;;;;;;;;;8.20;99.90;;;;;;4995547;28;20010;-71
2022/11/18 06:15:40;;;;;;;;;;;8.20;99.90;;;;;;5004210;28;19960;-71
2022/11/18 06:18:08;;;;;;;;;;;8.20;99.90;;;;;;5000115;28;19936;-72
2022/11/18 06:20:36;;;;;;;;;;;8.20;99.90;;;;;;5004614;28;19929;-72
2022/11/18 06:23:05;;;;;;;;;;;8.20;99.90;;;;;;4997036;28;19934;-71
2022/11/18 06:25:32;;;;;;;;;;;8.20;99.90;;;;;;5007267;28;19970;-72
2022/11/18 06:28:00;;;;;;;;;;;8.10;99.90;;;;;;5007058;28;20020;-72
2022/11/18 06:30:27;;;;;;;;;;;8.10;99.90;;;;;;5001357;28;19929;-72
2022/11/18 06:32:54;;;;;;;;;;;8.10;99.90;;;;;;5007696;28;19931;-71
2022/11/18 06:35:20;;;;;;;;;;;8.10;99.90;;;;;;4993637;28;20646;-72
2022/11/18 06:37:47;;;;;;;;;;;8.10;99.90;;;;;;5000500;28;20294;-72
2022/11/18 06:40:16;;;;;;;;;;;8.10;99.90;;;;;;5007934;28;19973;-72
2022/11/18 06:45:27;;;;;;;;;;;8.10;99.90;;;;;;5002406;28;19944;-72
2022/11/18 06:47:56;;;;;;;;;;;8.10;99.90;;;;;;5005029;28;19947;-72
2022/11/18 06:50:23;;;;;;;;;;;8.00;99.90;;;;;;4999186;28;19957;-72
2022/11/18 06:52:50;;;;;;;;;;;8.00;99.90;;;;;;5010889;28;19965;-71
2022/11/18 06:55:18;;;;;;;;;;;8.00;99.90;;;;;;5001915;28;19925;-71
2022/11/18 06:57:44;;;;;;;;;;;8.00;99.90;;;;;;5006931;28;19937;-71
2022/11/18 07:00:12;;;;;;;;;;;8.00;99.90;;;;;;4998637;28;19940;-71
2022/11/18 07:02:39;;;;;;;;;;;8.00;99.90;;;;;;5003655;28;19976;-71
2022/11/18 07:05:06;;;;;;;;;;;8.00;99.90;;;;;;5001225;28;19944;-72
2022/11/18 07:07:34;;;;;;;;;;;8.00;99.90;;;;;;5001357;28;19936;-72
2022/11/18 07:10:01;;;;;;;;;;;8.00;99.90;;;;;;5002229;28;20008;-71
2022/11/18 07:12:29;;;;;;;;;;;8.00;99.90;;;;;;4999266;28;19932;-72
2022/11/18 07:14:56;;;;;;;;;;;8.00;99.90;;;;;;4999289;28;19980;-71
2022/11/18 07:17:23;;;;;;;;;;;8.00;99.90;;;;;;4996548;28;19929;-71
2022/11/18 07:19:49;;;;;;;;;;;8.00;99.90;;;;;;5003771;28;19992;-71
2022/11/18 07:22:16;;;;;;;;;;;8.00;99.90;;;;;;5003090;28;19933;-72
2022/11/18 07:24:43;;;;;;;;;;;8.00;99.90;;;;;;5004974;28;19930;-72
2022/11/18 07:27:10;;;;;;;;;;;7.90;99.90;;;;;;4999649;28;20314;-71
2022/11/18 07:29:38;;;;;;;;;;;7.90;99.90;;;;;;5008161;28;19925;-72
2022/11/18 07:32:06;;;;;;;;;;;7.90;99.90;;;;;;4993209;28;20043;-71
2022/11/18 07:34:32;;;;;;;;;;;7.90;99.90;;;;;;5007438;28;20574;-72
2022/11/18 07:36:59;;;;;;;;;;;7.90;99.90;;;;;;5005134;28;20370;-71
2022/11/18 07:39:26;;;;;;;;;;;7.90;99.90;;;;;;5002056;28;20411;-71
2022/11/18 07:41:53;;;;;;;;;;;7.90;99.90;;;;;;4995055;28;19977;-71
2022/11/18 07:44:20;;;;;;;;;;;7.90;99.90;;;;;;4995312;28;19926;-71
2022/11/18 07:46:48;;;;;;;;;;;7.90;99.90;;;;;;5001840;28;19925;-71
2022/11/18 07:49:15;;;;;;;;;;;7.90;99.90;;;;;;5014893;28;19968;-71
2022/11/18 07:51:41;;;;;;;;;;;7.90;99.90;;;;;;4995074;28;19965;-71
2022/11/18 07:54:08;;;;;;;;;;;7.90;99.90;;;;;;5004541;28;19988;-71
2022/11/18 07:56:35;;;;;;;;;;;7.90;99.90;;;;;;4999139;28;20024;-71
2022/11/18 07:59:03;;;;;;;;;;;7.90;99.90;;;;;;4998194;28;19925;-71
2022/11/18 08:01:30;;;;;;;;;;;7.90;99.90;;;;;;5001451;28;19933;-71
2022/11/18 08:04:03;;;;;;;;;;;7.90;99.90;;;;;;5002600;28;20335;-72
2022/11/18 08:06:32;;;;;;;;;;;7.90;99.90;;;;;;4998416;28;19980;-72
2022/11/18 08:08:58;;;;;;;;;;;7.90;99.90;;;;;;4992681;28;19926;-72
2022/11/18 08:11:25;;;;;;;;;;;7.90;99.90;;;;;;5002323;28;20001;-71
2022/11/18 08:13:52;;;;;;;;;;;7.90;99.90;;;;;;5000152;28;19926;-71
2022/11/18 08:16:20;;;;;;;;;;;7.80;99.90;;;;;;5009211;28;19972;-71
2022/11/18 08:18:46;;;;;;;;;;;7.90;99.90;;;;;;4996273;28;19932;-71
2022/11/18 08:21:15;;;;;;;;;;;7.90;99.90;;;;;;4997997;28;19936;-71
2022/11/18 08:23:41;;;;;;;;;;;7.90;99.90;;;;;;4997142;28;19934;-71
2022/11/18 08:26:09;;;;;;;;;;;7.90;99.90;;;;;;4986591;28;19926;-71
2022/11/18 08:28:36;;;;;;;;;;;7.90;99.90;;;;;;4999566;28;19937;-71
2022/11/18 08:31:08;;;;;;;;;;;7.90;99.90;;;;;;5006617;28;19934;-71
2022/11/18 08:33:35;;;;;;;;;;;7.80;99.90;;;;;;5003949;28;20473;-71
2022/11/18 08:36:05;;;;;;;;;;;7.90;99.90;;;;;;4995188;28;20036;-71
2022/11/18 08:38:33;;;;;;;;;;;7.90;99.90;;;;;;5006639;28;20024;-71
2022/11/18 08:41:00;;;;;;;;;;;7.90;99.90;;;;;;4998790;28;20584;-71
2022/11/18 08:43:27;;;;;;;;;;;7.90;99.90;;;;;;5007718;28;19938;-71
2022/11/18 08:45:54;;;;;;;;;;;7.90;99.90;;;;;;4996281;28;19930;-71
2022/11/18 08:48:21;;;;;;;;;;;7.90;99.90;;;;;;4999884;28;19932;-71
2022/11/18 08:50:47;;;;;;;;;;;7.90;99.90;;;;;;5008055;28;19930;-71
2022/11/18 08:53:17;;;;;;;;;;;7.90;99.90;;;;;;4988156;28;19932;-71
2022/11/18 08:55:45;;;;;;;;;;;7.80;99.90;;;;;;5002776;28;20474;-71
2022/11/18 08:58:12;;;;;;;;;;;7.90;99.90;;;;;;4999360;28;19968;-71
2022/11/18 09:00:38;;;;;;;;;;;7.90;99.90;;;;;;5002600;28;19925;-71
2022/11/18 09:03:06;;;;;;;;;;;7.90;99.90;;;;;;4995091;28;19976;-71
2022/11/18 09:05:32;;;;;;;;;;;7.90;99.90;;;;;;4998927;28;19926;-71
2022/11/18 09:07:59;;;;;;;;;;;7.90;99.90;;;;;;4995195;28;19980;-71
2022/11/18 09:10:27;;;;;;;;;;;7.90;99.90;;;;;;4999519;28;19973;-71
2022/11/18 09:12:55;;;;;;;;;;;7.90;99.90;;;;;;5002572;28;19929;-71
2022/11/18 09:15:22;;;;;;;;;;;7.90;99.90;;;;;;4995847;28;19988;-71
2022/11/18 09:17:49;;;;;;;;;;;7.80;99.90;;;;;;4998809;28;19929;-72
2022/11/18 09:20:16;;;;;;;;;;;7.90;99.90;;;;;;4994593;28;20026;-72
2022/11/18 09:22:43;;;;;;;;;;;7.80;99.90;;;;;;5003321;28;19944;-71
2022/11/18 09:25:10;;;;;;;;;;;7.80;99.90;;;;;;4998191;28;19976;-71
2022/11/18 09:27:37;;;;;;;;;;;7.90;99.90;;;;;;5004540;28;19929;-71
2022/11/18 09:30:06;;;;;;;;;;;7.90;99.90;;;;;;4995379;28;19930;-71
2022/11/18 09:32:33;;;;;;;;;;;7.90;99.90;;;;;;4996980;28;19984;-71
2022/11/18 09:35:00;;;;;;;;;;;7.80;99.90;;;;;;4997646;28;20486;-72
2022/11/18 09:37:27;;;;;;;;;;;7.80;99.90;;;;;;5001929;28;19933;-71
2022/11/18 09:39:54;;;;;;;;;;;7.80;99.90;;;;;;4998569;28;19965;-71
2022/11/18 09:42:27;;;;;;;;;;;7.80;99.90;;;;;;5004410;28;19930;-71
2022/11/18 09:45:01;;;;;;;;;;;7.80;99.90;;;;;;5000855;28;19925;-72
2022/11/18 09:47:30;;;;;;;;;;;7.80;99.90;;;;;;5007681;28;19929;-72
2022/11/18 09:49:58;;;;;;;;;;;7.70;99.90;;;;;;5001186;28;19930;-71
2022/11/18 09:52:27;;;;;;;;;;;7.70;99.90;;;;;;4991845;28;20017;-72
2022/11/18 09:54:54;;;;;;;;;;;7.70;99.90;;;;;;5006298;28;19929;-72
2022/11/18 09:57:22;;;;;;;;;;;7.80;99.90;;;;;;5004122;28;19929;-71
2022/11/18 09:59:50;;;;;;;;;;;7.80;99.90;;;;;;5008496;28;19980;-71
2022/11/18 10:02:28;;;;;;;;;;;7.70;99.90;;;;;;4995894;28;19930;-72
2022/11/18 10:04:57;;;;;;;;;;;7.70;99.90;;;;;;5005136;28;20055;-72
2022/11/18 10:07:30;;;;;;;;;;;7.80;99.90;;;;;;5001759;28;19933;-71
2022/11/18 10:10:00;;;;;;;;;;;7.80;99.90;;;;;;4999680;28;19969;-72
2022/11/18 10:12:29;;;;;;;;;;;7.70;99.90;;;;;;5005871;28;20028;-72
2022/11/18 10:15:08;;;;;;;;;;;7.70;99.90;;;;;;5006435;28;19980;-72
2022/11/18 10:17:40;;;;;;;;;;;7.70;99.90;;;;;;5009753;28;19936;-72
2022/11/18 10:20:21;;;;;;;;;;;7.70;99.90;;;;;;4998492;28;19948;-71
2022/11/18 10:22:49;;;;;;;;;;;7.70;99.90;;;;;;5005536;28;19996;-71
2022/11/18 10:25:17;;;;;;;;;;;7.70;99.90;;;;;;5001038;28;19925;-72
2022/11/18 10:27:45;;;;;;;;;;;7.70;99.90;;;;;;5011247;28;19932;-72
2022/11/18 10:30:14;;;;;;;;;;;7.70;99.90;;;;;;5002388;28;20475;-72
2022/11/18 10:32:54;;;;;;;;;;;7.70;99.90;;;;;;5004566;28;20067;-72
2022/11/18 10:35:25;;;;;;;;;;;7.80;99.90;;;;;;5008425;28;20039;-72
2022/11/18 10:38:00;;;;;;;;;;;7.80;99.90;;;;;;5005935;28;19961;-72
2022/11/18 10:40:28;;;;;;;;;;;7.80;99.90;;;;;;5011499;28;19926;-72
2022/11/18 10:42:55;;;;;;;;;;;7.80;99.90;;;;;;5004157;28;19996;-72
2022/11/18 10:45:24;;;;;;;;;;;7.80;99.90;;;;;;5005563;28;19926;-72
2022/11/18 10:47:56;;;;;;;;;;;7.80;99.90;;;;;;5004219;28;19932;-71
2022/11/18 10:50:32;;;;;;;;;;;7.80;99.90;;;;;;5007174;28;19926;-72
2022/11/18 10:52:59;;;;;;;;;;;7.80;99.90;;;;;;5006151;28;19926;-72
2022/11/18 10:55:27;;;;;;;;;;;7.80;99.90;;;;;;5000116;28;20458;-72
2022/11/18 10:57:56;;;;;;;;;;;7.80;99.90;;;;;;5009172;28;19925;-72
2022/11/18 11:00:32;;;;;;;;;;;7.80;99.90;;;;;;5009185;28;19925;-71
2022/11/18 11:02:59;;;;;;;;;;;7.80;99.90;;;;;;5004919;28;19971;-72
2022/11/18 11:05:27;;;;;;;;;;;7.80;99.90;;;;;;5003117;28;20435;-71
2022/11/18 11:08:02;;;;;;;;;;;7.80;99.90;;;;;;5007132;28;19986;-72
2022/11/18 11:10:29;;;;;;;;;;;7.80;99.90;;;;;;5017085;28;19999;-72
2022/11/18 11:12:59;;;;;;;;;;;7.80;99.90;;;;;;5008246;28;19949;-71
2022/11/18 11:15:28;;;;;;;;;;;7.80;99.90;;;;;;5003294;28;19932;-72
2022/11/18 11:20:38;;;;;;;;;;;7.80;99.90;;;;;;5006476;28;19925;-72
2022/11/18 11:23:10;;;;;;;;;;;7.80;99.90;;;;;;5008788;28;19976;-72
2022/11/18 11:25:41;;;;;;;;;;;7.80;99.90;;;;;;5007043;28;20303;-72
2022/11/18 11:28:10;;;;;;;;;;;7.80;99.90;;;;;;5004154;28;20056;-72
2022/11/18 11:30:41;;;;;;;;;;;7.90;99.90;;;;;;5006462;28;20312;-71
2022/11/18 11:33:18;;;;;;;;;;;7.90;99.90;;;;;;5002110;28;20024;-71
2022/11/18 11:35:50;;;;;;;;;;;7.90;99.90;;;;;;5000312;28;19932;-72
2022/11/18 11:38:22;;;;;;;;;;;7.90;99.90;;;;;;5003790;28;20304;-72
2022/11/18 11:40:55;;;;;;;;;;;7.90;99.90;;;;;;5003997;28;20355;-72
2022/11/18 11:43:28;;;;;;;;;;;7.90;99.90;;;;;;4998359;28;19934;-72
2022/11/18 11:46:11;;;;;;;;;;;7.90;99.90;;;;;;5011467;28;20015;-71
2022/11/18 11:48:46;;;;;;;;;;;7.90;99.90;;;;;;5007421;28;20168;-72
2022/11/18 11:51:16;;;;;;;;;;;7.90;99.90;;;;;;5004183;28;19975;-71
2022/11/18 11:53:56;;;;;;;;;;;7.90;99.90;;;;;;5004962;28;19932;-71
2022/11/18 11:56:27;;;;;;;;;;;7.90;99.90;;;;;;5007494;28;19929;-71
2022/11/18 11:59:02;;;;;;;;;;;7.90;99.90;;;;;;5008432;28;19925;-72
2022/11/18 12:01:34;;;;;;;;;;;7.90;99.90;;;;;;5004413;28;19929;-72
2022/11/18 12:04:04;;;;;;;;;;;7.90;99.90;;;;;;5005202;28;19929;-71
2022/11/18 12:06:31;;;;;;;;;;;7.90;99.90;;;;;;5006309;28;20116;-72
2022/11/18 12:09:02;;;;;;;;;;;8.00;99.90;;;;;;5002724;28;19930;-72
2022/11/18 12:11:34;;;;;;;;;;;7.90;99.90;;;;;;5007932;28;20366;-71
2022/11/18 12:14:04;;;;;;;;;;;8.00;99.90;;;;;;5000209;28;20032;-72
2022/11/18 12:16:35;;;;;;;;;;;8.00;99.90;;;;;;5009649;28;20087;-72
2022/11/18 12:19:07;;;;;;;;;;;8.00;99.90;;;;;;5009025;28;19972;-72
2022/11/18 12:21:49;;;;;;;;;;;8.00;99.90;;;;;;5005113;28;19972;-72
2022/11/18 12:24:30;;;;;;;;;;;8.00;99.90;;;;;;4997264;28;19930;-72
2022/11/18 12:26:58;;;;;;;;;;;8.00;99.90;;;;;;5001465;28;19940;-71
2022/11/18 12:29:26;;;;;;;;;;;8.10;99.90;;;;;;5000106;28;19929;-71
2022/11/18 12:31:54;;;;;;;;;;;8.00;99.90;;;;;;5000336;28;19926;-72
2022/11/18 12:34:29;;;;;;;;;;;8.00;99.90;;;;;;5009745;28;20393;-72
2022/11/18 12:36:56;;;;;;;;;;;8.10;99.90;;;;;;5005282;28;20473;-72
2022/11/18 12:39:57;;;;;;;;;;;8.10;99.90;;;;;;4993134;28;20418;-72
2022/11/18 12:45:39;;;;;;;;;;;8.10;99.90;;;;;;4997673;28;20296;-71
2022/11/18 12:48:26;;;;;;;;;;;8.20;99.90;;;;;;4990764;28;19929;-72
2022/11/18 12:50:54;;;;;;;;;;;8.20;99.90;;;;;;4975453;28;19987;-72
2022/11/18 12:53:36;;;;;;;;;;;8.20;99.90;;;;;;4990554;28;20546;-72
2022/11/18 12:56:10;;;;;;;;;;;8.10;99.90;;;;;;4986875;28;19940;-72
2022/11/18 12:58:44;;;;;;;;;;;8.10;99.90;;;;;;4990629;28;19933;-71
2022/11/18 13:01:12;;;;;;;;;;;8.20;99.90;;;;;;5008311;28;19926;-72
2022/11/18 13:03:39;;;;;;;;;;;8.20;99.90;;;;;;4994271;28;19926;-72
2022/11/18 13:06:12;;;;;;;;;;;8.20;99.90;;;;;;4995447;28;19953;-72
2022/11/18 13:08:39;;;;;;;;;;;8.10;99.90;;;;;;4989246;28;19934;-72
2022/11/18 13:19:25;;;;;;;;;;;8.20;99.90;;;;;;4966955;28;19932;-72
2022/11/18 13:24:45;;;;;;;;;;;8.20;99.90;;;;;;4968424;28;19944;-72
2022/11/18 13:27:18;;;;;;;;;;;8.20;99.90;;;;;;4993751;28;20080;-72
2022/11/18 13:29:48;;;;;;;;;;;8.20;99.90;;;;;;4992660;28;19969;-72
2022/11/18 13:32:20;;;;;;;;;;;8.20;99.90;;;;;;4991801;28;19933;-72
2022/11/18 13:34:48;;;;;;;;;;;8.10;99.90;;;;;;4994274;28;19980;-72
2022/11/18 13:37:17;;;;;;;;;;;8.20;99.90;;;;;;4992770;28;19940;-72
2022/11/18 13:39:45;;;;;;;;;;;8.10;99.90;;;;;;4992271;28;19964;-73
2022/11/18 13:42:14;;;;;;;;;;;8.10;99.90;;;;;;4999502;28;19933;-73
2022/11/18 13:44:45;;;;;;;;;;;8.20;99.90;;;;;;4991651;28;20416;-73
2022/11/18 13:47:19;;;;;;;;;;;8.20;99.90;;;;;;4988361;28;19925;-72
2022/11/18 13:49:48;;;;;;;;;;;8.20;99.90;;;;;;4995872;28;19969;-72
2022/11/18 13:52:18;;;;;;;;;;;8.20;99.90;;;;;;4993762;28;19925;-72
2022/11/18 13:54:45;;;;;;;;;;;8.20;99.90;;;;;;4994494;28;19929;-72
2022/11/18 13:57:19;;;;;;;;;;;8.20;99.90;;;;;;4997123;28;20276;-73
2022/11/18 13:59:47;;;;;;;;;;;8.20;99.90;;;;;;4994284;28;19969;-73
2022/11/18 14:02:16;;;;;;;;;;;8.20;99.90;;;;;;4994217;28;20461;-72
2022/11/18 14:04:50;;;;;;;;;;;8.20;99.90;;;;;;4973185;28;19929;-72
2022/11/18 14:07:28;;;;;;;;;;;8.20;99.90;;;;;;4995333;28;19929;-72
2022/11/18 14:09:57;;;;;;;;;;;8.30;99.90;;;;;;4990749;28;19989;-72
2022/11/18 14:12:25;;;;;;;;;;;8.20;99.90;;;;;;5001583;28;19925;-73
2022/11/18 14:14:52;;;;;;;;;;;8.20;99.90;;;;;;4989849;28;20029;-72
2022/11/18 14:17:21;;;;;;;;;;;8.20;99.90;;;;;;5000237;28;19961;-72
2022/11/18 14:19:49;;;;;;;;;;;8.20;99.90;;;;;;4990158;28;19960;-74
2022/11/18 14:22:17;;;;;;;;;;;8.20;99.90;;;;;;4992894;28;19932;-71
2022/11/18 14:24:53;;;;;;;;;;;8.20;99.90;;;;;;4997817;28;19933;-71
2022/11/18 14:27:36;;;;;;;;;;;8.20;99.90;;;;;;4998001;28;20028;-71
2022/11/18 14:30:22;;;;;;;;;;;8.20;99.90;;;;;;4994620;28;20086;-71
2022/11/18 14:33:08;;;;;;;;;;;8.20;99.90;;;;;;5000390;28;19984;-71
2022/11/18 14:35:35;;;;;;;;;;;8.20;99.90;;;;;;5000546;28;19996;-71
2022/11/18 14:38:08;;;;;;;;;;;8.20;99.90;;;;;;4998425;28;19957;-71
2022/11/18 14:40:35;;;;;;;;;;;8.20;99.90;;;;;;4999918;28;19983;-71
2022/11/18 14:43:02;;;;;;;;;;;8.20;99.90;;;;;;4992993;28;20399;-71
2022/11/18 14:45:29;;;;;;;;;;;8.20;99.90;;;;;;4995446;28;19929;-71
2022/11/18 14:47:56;;;;;;;;;;;8.20;99.90;;;;;;4994908;28;19933;-71
2022/11/18 14:50:24;;;;;;;;;;;8.20;99.90;;;;;;4992540;28;19926;-71
2022/11/18 14:52:51;;;;;;;;;;;8.20;99.90;;;;;;4991023;28;19933;-71
2022/11/18 14:55:17;;;;;;;;;;;8.30;99.90;;;;;;4990471;28;20406;-71
2022/11/18 14:57:44;;;;;;;;;;;8.20;99.90;;;;;;4999349;28;19957;-71
2022/11/18 15:00:12;;;;;;;;;;;8.20;99.90;;;;;;4996252;28;20528;-71
2022/11/18 15:02:39;;;;;;;;;;;8.20;99.90;;;;;;4994573;28;19987;-71
2022/11/18 15:05:06;;;;;;;;;;;8.20;99.90;;;;;;4998956;28;20008;-71
2022/11/18 15:07:36;;;;;;;;;;;8.20;99.90;;;;;;4995811;28;20399;-71
2022/11/18 15:10:04;;;;;;;;;;;8.20;99.90;;;;;;4994001;28;20028;-71
2022/11/18 15:12:30;;;;;;;;;;;8.20;99.90;;;;;;4994268;28;19981;-71
2022/11/18 15:14:57;;;;;;;;;;;8.20;99.90;;;;;;4991535;28;19953;-71
2022/11/18 15:17:24;;;;;;;;;;;8.20;99.90;;;;;;5001113;28;19932;-71